Time;durP1;ratioP1;P1;durP2;ratioP2;P2;SDS_P1;SDS_P2;PMS_P1;PMS_P2;Temp;Humidity;BMP_temperature;BMP_pressure;BME280_temperature;BME280_humidity;BME280_pressure;Samples;Min_cycle;Max_cycle;Signal;HPM_P1;HPM_P2
2023/05/08 00:02:04;;;;;;;13.07;11.68;;;;;;;13.93;64.91;100309.50;10526352;28;20071;-63
2023/05/08 00:07:06;;;;;;;15.32;12.25;;;;;;;14.01;65.11;100312.47;10527406;28;20055;-63
2023/05/08 00:12:07;;;;;;;14.85;13.18;;;;;;;14.21;65.15;100311.09;10522495;28;20073;-63
2023/05/08 00:17:09;;;;;;;14.00;12.48;;;;;;;14.35;64.98;100314.47;10548721;28;20126;-63
2023/05/08 00:22:11;;;;;;;14.13;11.80;;;;;;;14.45;64.58;100317.31;10527227;28;20375;-63
2023/05/08 00:27:13;;;;;;;14.15;12.32;;;;;;;14.33;64.17;100316.38;10531646;28;20550;-63
2023/05/08 00:32:16;;;;;;;15.85;13.23;;;;;;;14.32;64.48;100319.09;10560455;28;20272;-63
2023/05/08 00:37:17;;;;;;;12.45;11.15;;;;;;;14.38;64.09;100309.00;10548188;28;20181;-63
2023/05/08 00:42:19;;;;;;;13.05;11.55;;;;;;;14.29;63.54;100312.25;10532804;28;20130;-63
2023/05/08 00:47:22;;;;;;;15.48;11.05;;;;;;;14.03;63.75;100307.94;10563920;28;20456;-63
2023/05/08 00:52:26;;;;;;;16.60;14.68;;;;;;;13.93;64.90;100306.88;10554873;28;20040;-63
2023/05/08 00:57:31;;;;;;;19.83;14.52;;;;;;;13.97;65.26;100308.34;10553763;28;20130;-63
2023/05/08 01:02:34;;;;;;;17.15;12.50;;;;;;;13.89;64.61;100312.44;10555127;28;20056;-64
2023/05/08 01:07:37;;;;;;;14.48;10.88;;;;;;;13.87;64.54;100315.19;10541884;28;20047;-63
2023/05/08 01:13:05;;;;;;;18.25;14.90;;;;;;;13.88;65.08;100314.22;10537196;28;20603;-63
2023/05/08 01:18:29;;;;;;;12.90;11.50;;;;;;;13.52;65.27;100324.56;10557935;28;20097;-63
2023/05/08 01:23:48;;;;;;;10.68;9.57;;;;;;;13.58;64.07;100329.41;10573995;28;20063;-62
2023/05/08 01:29:22;;;;;;;12.63;10.20;;;;;;;13.34;64.01;100321.31;10538822;28;20070;-63
2023/05/08 01:34:30;;;;;;;13.50;12.07;;;;;;;13.52;64.98;100325.41;10526781;28;20552;-63
2023/05/08 01:40:02;;;;;;;14.73;10.90;;;;;;;13.38;64.42;100335.09;10551520;28;20121;-63
2023/05/08 01:45:15;;;;;;;17.30;12.15;;;;;;;13.35;64.47;100330.06;10534031;28;20093;-63
2023/05/08 01:50:24;;;;;;;13.32;11.70;;;;;;;13.24;64.58;100335.16;10554096;28;20185;-63
2023/05/08 01:55:33;;;;;;;14.02;10.05;;;;;;;13.19;64.74;100338.06;10551575;28;20036;-64
2023/05/08 02:00:38;;;;;;;12.60;11.35;;;;;;;13.28;64.98;100339.25;10549677;28;20044;-63
2023/05/08 02:05:41;;;;;;;12.95;11.20;;;;;;;13.48;64.70;100334.44;10577540;28;20051;-63
2023/05/08 02:10:47;;;;;;;14.55;11.48;;;;;;;13.68;64.64;100341.00;10581124;28;20138;-63
2023/05/08 02:15:51;;;;;;;16.45;12.35;;;;;;;13.76;64.61;100334.31;10557270;28;20032;-64
2023/05/08 02:20:56;;;;;;;14.43;12.93;;;;;;;13.79;64.66;100328.00;10504261;28;20404;-64
2023/05/08 02:26:00;;;;;;;13.88;11.85;;;;;;;13.87;64.64;100344.09;10547364;28;20134;-63
2023/05/08 02:31:04;;;;;;;16.83;14.00;;;;;;;13.86;64.32;100345.03;10552376;28;20174;-63
2023/05/08 02:36:09;;;;;;;16.05;13.80;;;;;;;13.75;64.66;100360.69;10541876;28;20062;-64
2023/05/08 02:41:13;;;;;;;12.02;10.40;;;;;;;13.65;64.09;100357.00;10520133;28;20098;-64
2023/05/08 02:46:19;;;;;;;15.55;12.60;;;;;;;13.54;64.24;100367.34;10518343;28;20123;-64
2023/05/08 02:51:36;;;;;;;12.65;11.35;;;;;;;13.50;64.00;100369.34;10556850;28;20040;-64
2023/05/08 02:56:46;;;;;;;17.17;15.18;;;;;;;13.51;64.87;100364.94;10517542;28;20081;-64
2023/05/08 03:01:50;;;;;;;12.47;10.37;;;;;;;13.36;64.11;100361.47;10546322;28;20039;-64
2023/05/08 03:06:55;;;;;;;17.55;13.30;;;;;;;13.21;64.41;100366.88;10549193;28;20043;-65
2023/05/08 03:12:05;;;;;;;15.35;12.93;;;;;;;12.98;64.77;100363.91;10546460;28;20089;-65
2023/05/08 03:17:11;;;;;;;12.07;10.27;;;;;;;13.13;64.63;100362.09;10550861;28;20163;-65
2023/05/08 03:22:15;;;;;;;13.52;10.27;;;;;;;13.14;64.32;100363.78;10545123;28;20113;-65
2023/05/08 03:27:19;;;;;;;12.82;9.60;;;;;;;13.16;63.96;100368.94;10507674;28;20040;-62
2023/05/08 03:32:24;;;;;;;13.55;10.57;;;;;;;13.13;63.40;100367.34;10484810;28;20516;-62
2023/05/08 03:37:27;;;;;;;14.07;10.13;;;;;;;13.08;63.08;100373.84;10535785;28;20044;-63
2023/05/08 03:42:30;;;;;;;12.10;10.80;;;;;;;13.14;64.06;100376.06;10510507;28;20044;-63
2023/05/08 03:47:35;;;;;;;12.27;10.73;;;;;;;13.09;63.48;100372.91;10527265;28;20135;-63
2023/05/08 03:52:38;;;;;;;11.40;8.73;;;;;;;12.98;63.39;100370.94;10550269;28;20051;-63
2023/05/08 03:57:49;;;;;;;12.48;11.25;;;;;;;13.14;64.11;100366.41;10524485;28;20504;-63
2023/05/08 04:03:10;;;;;;;13.80;12.38;;;;;;;13.10;64.05;100374.56;10537449;28;20050;-63
2023/05/08 04:08:20;;;;;;;14.00;12.60;;;;;;;12.88;64.67;100378.53;10542865;28;20040;-63
2023/05/08 04:13:27;;;;;;;14.10;12.20;;;;;;;12.80;64.51;100386.03;10528782;28;20044;-63
2023/05/08 04:18:31;;;;;;;12.90;11.15;;;;;;;12.99;64.43;100388.38;10536495;28;20462;-63
2023/05/08 04:23:37;;;;;;;13.70;12.20;;;;;;;13.09;64.60;100383.41;10522060;28;20039;-63
2023/05/08 04:28:39;;;;;;;14.43;12.93;;;;;;;12.98;64.57;100394.56;10560629;28;20491;-63
2023/05/08 04:33:45;;;;;;;12.80;11.60;;;;;;;12.87;64.00;100394.38;10543054;28;20040;-64
2023/05/08 04:38:47;;;;;;;14.07;12.75;;;;;;;12.95;64.46;100392.97;10537196;28;20512;-63
2023/05/08 04:43:49;;;;;;;13.77;12.27;;;;;;;12.95;64.01;100397.38;10557522;28;20046;-63
2023/05/08 04:48:52;;;;;;;13.50;12.00;;;;;;;12.79;64.06;100394.88;10539622;28;20405;-64
2023/05/08 04:53:54;;;;;;;16.10;13.27;;;;;;;12.96;64.27;100405.16;10535066;28;20051;-64
2023/05/08 04:58:56;;;;;;;16.10;13.43;;;;;;;12.94;64.41;100406.22;10547415;28;20958;-63
2023/05/08 05:03:58;;;;;;;15.85;12.95;;;;;;;13.08;63.88;100413.22;10553221;28;20403;-63
2023/05/08 05:09:00;;;;;;;13.68;12.23;;;;;;;13.17;63.72;100418.72;10547293;28;20446;-63
2023/05/08 05:14:02;;;;;;;13.75;11.40;;;;;;;13.14;63.27;100412.84;10574071;28;20225;-63
2023/05/08 05:19:04;;;;;;;15.32;11.68;;;;;;;13.30;63.11;100416.19;10555219;28;20428;-63
2023/05/08 05:24:06;;;;;;;13.38;11.98;;;;;;;13.24;62.69;100414.78;10542403;28;20537;-64
2023/05/08 05:29:10;;;;;;;14.70;11.75;;;;;;;13.18;63.56;100423.06;10546815;28;20044;-63
2023/05/08 05:34:12;;;;;;;13.07;11.82;;;;;;;13.20;63.31;100429.06;10554978;28;20036;-64
2023/05/08 05:39:15;;;;;;;13.07;11.68;;;;;;;13.12;63.00;100433.09;10529446;28;20139;-64
2023/05/08 05:44:17;;;;;;;14.40;12.60;;;;;;;13.08;63.55;100432.47;10479105;28;20040;-63
2023/05/08 05:49:19;;;;;;;12.85;11.25;;;;;;;13.13;63.53;100440.88;10519792;28;20044;-64
2023/05/08 05:54:21;;;;;;;15.82;14.23;;;;;;;12.99;64.07;100446.13;10494676;28;20447;-63
2023/05/08 05:59:23;;;;;;;17.98;13.60;;;;;;;12.83;64.05;100448.88;10503490;28;20040;-64
2023/05/08 06:04:25;;;;;;;12.38;10.70;;;;;;;12.88;63.83;100457.28;10524791;28;20327;-64
2023/05/08 06:09:27;;;;;;;16.60;11.75;;;;;;;12.85;63.78;100454.88;10510822;28;20078;-64
2023/05/08 06:14:29;;;;;;;16.48;14.70;;;;;;;12.63;64.32;100459.72;10505732;28;20037;-64
2023/05/08 06:19:32;;;;;;;16.90;13.65;;;;;;;12.66;64.38;100458.69;10504016;28;20044;-63
2023/05/08 06:24:35;;;;;;;15.60;13.95;;;;;;;12.73;64.75;100452.97;10512258;28;20142;-64
2023/05/08 06:29:37;;;;;;;17.17;13.15;;;;;;;12.67;64.49;100455.13;10497536;28;20052;-64
2023/05/08 06:34:39;;;;;;;16.25;13.40;;;;;;;12.62;65.07;100458.03;10483689;28;21003;-64
2023/05/08 06:39:40;;;;;;;14.93;12.88;;;;;;;12.76;64.86;100452.78;10515470;28;20100;-63
2023/05/08 06:44:42;;;;;;;16.83;14.18;;;;;;;13.11;64.18;100455.06;10535783;28;20452;-64
2023/05/08 06:49:44;;;;;;;15.73;13.98;;;;;;;13.45;64.16;100449.41;10518801;28;20514;-64
2023/05/08 06:54:47;;;;;;;13.73;11.73;;;;;;;13.60;63.18;100446.63;10516474;28;20123;-64
2023/05/08 06:59:48;;;;;;;14.05;12.48;;;;;;;13.59;63.26;100442.34;10511088;28;20130;-63
2023/05/08 07:04:50;;;;;;;15.30;12.75;;;;;;;13.94;62.52;100436.59;10504781;28;20139;-64
2023/05/08 07:09:52;;;;;;;16.63;11.07;;;;;;;13.99;61.82;100451.09;10533153;28;20044;-62
2023/05/08 07:14:54;;;;;;;12.98;11.52;;;;;;;13.80;62.42;100458.50;10523801;28;20043;-64
2023/05/08 07:19:58;;;;;;;14.80;12.85;;;;;;;13.88;62.18;100448.31;10517958;28;20411;-64
2023/05/08 07:25:00;;;;;;;13.75;12.30;;;;;;;13.78;62.91;100449.88;10523350;28;20056;-64
2023/05/08 07:30:03;;;;;;;13.68;12.27;;;;;;;13.85;62.65;100453.78;10522584;28;20052;-64
2023/05/08 07:35:07;;;;;;;15.35;11.48;;;;;;;13.68;62.54;100456.66;10520166;28;20132;-64
2023/05/08 07:40:11;;;;;;;15.00;12.05;;;;;;;13.83;62.71;100463.56;10524856;28;20040;-64
2023/05/08 07:45:13;;;;;;;17.48;12.07;;;;;;;13.82;62.57;100469.75;10504305;28;20047;-64
2023/05/08 07:50:16;;;;;;;14.18;12.60;;;;;;;13.81;62.99;100469.84;10515093;28;20450;-64
2023/05/08 07:55:18;;;;;;;14.90;13.07;;;;;;;14.08;62.47;100452.28;10505136;28;20102;-64
2023/05/08 08:00:20;;;;;;;22.75;14.02;;;;;;;14.33;62.81;100455.81;10537814;28;20573;-63
2023/05/08 08:05:22;;;;;;;15.95;12.07;;;;;;;14.28;61.65;100449.19;10518115;28;20090;-64
2023/05/08 08:10:24;;;;;;;14.93;11.95;;;;;;;14.12;61.72;100457.25;10519772;28;20048;-64
2023/05/08 08:15:30;;;;;;;14.85;11.73;;;;;;;14.37;61.60;100457.28;10522185;28;20098;-64
2023/05/08 08:20:32;;;;;;;14.73;12.48;;;;;;;14.69;60.56;100464.84;10517424;28;20119;-63
2023/05/08 08:25:34;;;;;;;11.85;10.60;;;;;;;14.72;59.78;100462.84;10497268;28;20048;-64
2023/05/08 08:30:36;;;;;;;11.73;10.57;;;;;;;14.68;60.42;100465.78;10541183;28;20472;-64
2023/05/08 08:35:38;;;;;;;14.82;10.90;;;;;;;14.56;59.44;100473.59;10516329;28;20044;-64
2023/05/08 08:40:41;;;;;;;15.73;11.35;;;;;;;14.39;60.03;100473.81;10522893;28;20040;-64
2023/05/08 08:45:43;;;;;;;14.75;12.32;;;;;;;14.46;60.84;100474.25;10514203;28;20051;-64
2023/05/08 08:50:49;;;;;;;14.88;13.20;;;;;;;14.49;60.42;100476.75;10537685;28;20139;-64
2023/05/08 08:55:54;;;;;;;19.20;12.02;;;;;;;14.36;60.76;100475.81;10517769;28;20047;-64
2023/05/08 09:00:59;;;;;;;14.48;12.63;;;;;;;14.24;61.44;100481.91;10546863;28;20138;-64
2023/05/08 09:06:02;;;;;;;12.23;11.02;;;;;;;14.21;61.38;100475.03;10525949;28;20064;-64
2023/05/08 09:11:03;;;;;;;14.80;12.80;;;;;;;14.26;61.16;100475.59;10512048;28;20047;-64
2023/05/08 09:16:05;;;;;;;15.73;13.65;;;;;;;14.45;61.90;100468.16;10533899;28;20055;-64
2023/05/08 09:21:07;;;;;;;17.08;13.35;;;;;;;14.67;61.23;100467.59;10526575;28;20488;-64
2023/05/08 09:26:09;;;;;;;13.73;12.32;;;;;;;14.78;60.35;100470.31;10516214;28;20132;-64
2023/05/08 09:31:11;;;;;;;16.83;12.90;;;;;;;14.76;60.43;100476.66;10531036;28;20044;-64
2023/05/08 09:36:25;;;;;;;14.55;12.27;;;;;;;14.79;60.74;100469.38;10511788;28;20060;-64
2023/05/08 09:41:28;;;;;;;15.40;12.70;;;;;;;15.18;59.50;100463.16;10525933;28;20135;-64
2023/05/08 09:46:32;;;;;;;15.48;12.75;;;;;;;15.30;59.54;100475.44;10533945;28;20047;-64
2023/05/08 09:51:34;;;;;;;15.07;12.52;;;;;;;15.31;59.07;100474.50;10514461;28;20052;-64
2023/05/08 09:56:38;;;;;;;12.85;10.32;;;;;;;15.82;57.89;100477.84;10548336;28;20118;-63
2023/05/08 10:01:40;;;;;;;12.77;10.35;;;;;;;16.85;56.03;100470.94;10532534;28;20040;-64
2023/05/08 10:06:42;;;;;;;14.68;10.07;;;;;;;18.09;55.52;100460.94;10526355;28;20381;-64
2023/05/08 10:11:51;;;;;;;10.50;9.30;;;;;;;18.78;53.13;100452.41;10532419;28;20078;-64
2023/05/08 10:16:54;;;;;;;15.23;9.60;;;;;;;18.70;52.46;100454.88;10541500;28;20044;-64
2023/05/08 10:21:59;;;;;;;11.50;8.88;;;;;;;18.76;51.42;100457.00;10545154;28;20040;-64
2023/05/08 10:27:02;;;;;;;10.15;9.10;;;;;;;19.13;49.98;100466.16;10501450;28;20051;-64
2023/05/08 10:32:09;;;;;;;9.80;8.55;;;;;;;19.25;49.87;100454.47;10517112;28;20047;-64
2023/05/08 10:37:11;;;;;;;10.48;9.13;;;;;;;18.83;50.52;100457.31;10510980;28;20147;-64
2023/05/08 10:42:14;;;;;;;11.10;9.07;;;;;;;18.59;50.03;100449.63;10529193;28;20040;-64
2023/05/08 10:47:25;;;;;;;10.18;8.88;;;;;;;18.20;51.74;100450.34;10527627;28;20052;-64
2023/05/08 10:52:52;;;;;;;13.35;9.38;;;;;;;18.39;50.36;100447.81;10526170;28;20047;-64
2023/05/08 10:58:05;;;;;;;9.82;8.88;;;;;;;18.44;51.55;100440.34;10546495;28;20051;-64
2023/05/08 11:03:07;;;;;;;10.63;8.82;;;;;;;18.48;51.67;100439.13;10546176;28;20044;-64
2023/05/08 11:08:26;;;;;;;10.90;9.18;;;;;;;18.56;51.00;100441.97;10504725;28;20526;-64
2023/05/08 11:13:32;;;;;;;12.00;9.07;;;;;;;17.56;52.46;100452.94;10509343;28;20036;-64
2023/05/08 11:18:34;;;;;;;10.25;9.15;;;;;;;17.58;53.26;100450.16;10508500;28;20102;-64
2023/05/08 11:23:59;;;;;;;9.93;8.68;;;;;;;17.65;53.31;100435.44;10522445;28;20067;-64
2023/05/08 11:29:00;;;;;;;11.68;9.70;;;;;;;17.70;53.16;100444.72;10524357;28;20074;-64
2023/05/08 11:34:04;;;;;;;12.10;10.20;;;;;;;17.23;54.52;100449.44;10513122;28;20044;-64
2023/05/08 11:39:14;;;;;;;11.32;10.10;;;;;;;16.86;55.42;100447.03;10520303;28;20136;-64
2023/05/08 11:44:20;;;;;;;13.10;11.00;;;;;;;16.82;56.08;100445.59;10523281;28;20066;-64
2023/05/08 11:49:24;;;;;;;13.20;10.63;;;;;;;16.94;56.02;100435.88;10521294;28;20066;-64
2023/05/08 11:54:30;;;;;;;12.98;10.43;;;;;;;16.68;55.92;100442.31;10507359;28;20044;-64
2023/05/08 11:59:36;;;;;;;13.15;10.70;;;;;;;16.88;55.68;100442.47;10513808;28;20032;-63
2023/05/08 12:04:47;;;;;;;12.38;10.20;;;;;;;16.91;55.06;100436.97;10505429;28;20472;-63
2023/05/08 12:09:49;;;;;;;16.70;10.65;;;;;;;16.63;55.78;100440.03;10521699;28;20040;-64
2023/05/08 12:14:51;;;;;;;13.13;10.60;;;;;;;16.81;55.69;100441.25;10520360;28;20135;-63
2023/05/08 12:19:57;;;;;;;11.88;10.10;;;;;;;16.78;55.73;100444.16;10540164;28;20074;-63
2023/05/08 12:25:01;;;;;;;11.63;10.18;;;;;;;16.83;55.53;100443.81;10528877;28;20490;-64
2023/05/08 12:30:08;;;;;;;11.07;9.85;;;;;;;16.78;56.58;100438.88;10531240;28;20086;-64
2023/05/08 12:35:12;;;;;;;12.65;10.02;;;;;;;16.89;56.11;100432.75;10531093;28;20123;-63
2023/05/08 12:40:32;;;;;;;10.32;9.27;;;;;;;16.93;56.44;100436.84;10505383;28;20497;-64
2023/05/08 12:45:41;;;;;;;13.45;10.20;;;;;;;16.85;57.25;100432.13;10509598;28;20040;-64
2023/05/08 12:50:46;;;;;;;10.50;9.40;;;;;;;17.20;56.82;100421.44;10538693;28;20044;-63
2023/05/08 12:55:56;;;;;;;13.27;10.52;;;;;;;17.33;56.60;100423.94;10556031;28;20470;-63
2023/05/08 13:01:09;;;;;;;;;;;;;;;16.83;56.98;100420.84;10531351;28;20109;-64
2023/05/08 13:06:21;;;;;;;11.10;9.73;;;;;;;17.52;56.32;100413.63;10504355;28;19930;-63
2023/05/08 13:11:31;;;;;;;17.00;10.10;;;;;;;18.15;55.61;100418.91;10493960;28;20048;-63
2023/05/08 13:16:50;;;;;;;11.13;9.13;;;;;;;18.90;53.31;100410.75;10531427;28;20555;-63
2023/05/08 13:21:52;;;;;;;14.15;9.70;;;;;;;18.63;52.50;100408.66;10519765;28;20408;-64
2023/05/08 13:26:54;;;;;;;11.05;9.82;;;;;;;18.94;52.33;100405.06;10534132;28;20050;-63
2023/05/08 13:31:56;;;;;;;15.10;9.38;;;;;;;18.71;51.99;100395.59;10529280;28;20124;-65
2023/05/08 13:36:59;;;;;;;10.60;9.20;;;;;;;18.99;52.19;100386.91;10526609;28;20055;-65
2023/05/08 13:42:01;;;;;;;11.05;9.30;;;;;;;18.95;52.56;100387.34;10525619;28;20044;-65
2023/05/08 13:47:03;;;;;;;16.27;9.75;;;;;;;19.34;52.08;100386.50;10526371;28;20044;-64
2023/05/08 13:52:05;;;;;;;10.95;9.30;;;;;;;19.33;51.37;100383.03;10527736;28;20542;-64
2023/05/08 13:57:09;;;;;;;9.80;8.80;;;;;;;18.97;51.84;100372.16;10522752;28;20126;-64
2023/05/08 14:02:11;;;;;;;13.05;8.65;;;;;;;19.34;51.68;100376.72;10526162;28;20040;-62
2023/05/08 14:07:13;;;;;;;11.68;8.90;;;;;;;19.24;51.89;100367.91;10520157;28;20047;-62
2023/05/08 14:12:16;;;;;;;11.25;9.70;;;;;;;19.38;51.08;100364.88;10528250;28;20496;-64
2023/05/08 14:17:18;;;;;;;10.38;9.32;;;;;;;19.40;51.66;100367.38;10537062;28;20430;-64
2023/05/08 14:22:20;;;;;;;11.80;9.05;;;;;;;19.40;51.75;100372.69;10512886;28;20496;-64
2023/05/08 14:27:21;;;;;;;10.60;9.60;;;;;;;18.86;52.89;100356.31;10528024;28;20119;-65
2023/05/08 14:32:23;;;;;;;10.02;9.02;;;;;;;18.97;52.48;100351.75;10526717;28;20055;-65
2023/05/08 14:37:25;;;;;;;12.50;9.52;;;;;;;19.38;52.22;100348.13;10528597;28;20404;-65
2023/05/08 14:42:27;;;;;;;11.52;8.80;;;;;;;19.59;52.46;100348.00;10566041;28;20044;-65
2023/05/08 14:47:31;;;;;;;9.55;8.55;;;;;;;20.04;52.00;100335.88;10569619;28;20109;-64
2023/05/08 14:52:33;;;;;;;10.70;9.40;;;;;;;20.03;50.93;100336.84;10539576;28;20126;-64
2023/05/08 14:57:35;;;;;;;10.32;8.38;;;;;;;20.06;51.65;100342.72;10536903;28;20120;-65
2023/05/08 15:02:37;;;;;;;12.38;8.98;;;;;;;19.86;51.32;100333.09;10522028;28;20052;-65
2023/05/08 15:07:40;;;;;;;12.57;9.35;;;;;;;19.69;51.97;100335.56;10513619;28;20042;-64
2023/05/08 15:12:43;;;;;;;10.65;8.68;;;;;;;19.70;52.28;100330.16;10510187;28;20135;-65
2023/05/08 15:17:45;;;;;;;10.80;9.13;;;;;;;19.68;52.19;100333.91;10527740;28;20263;-65
2023/05/08 15:22:47;;;;;;;11.50;8.38;;;;;;;19.67;51.81;100333.06;10518567;28;20327;-63
2023/05/08 15:27:51;;;;;;;11.75;8.43;;;;;;;19.47;52.30;100336.69;10516519;28;20040;-63
2023/05/08 15:32:53;;;;;;;11.88;10.15;;;;;;;19.35;52.32;100336.00;10520400;28;20059;-65
2023/05/08 15:37:56;;;;;;;10.55;9.38;;;;;;;19.15;52.80;100331.63;10503394;28;20051;-64
2023/05/08 15:43:02;;;;;;;11.70;9.57;;;;;;;18.98;52.78;100332.25;10508637;28;20587;-63
2023/05/08 15:48:04;;;;;;;12.55;9.07;;;;;;;19.04;53.42;100336.19;10514804;28;20195;-64
2023/05/08 15:53:07;;;;;;;11.80;9.40;;;;;;;19.18;53.56;100330.50;10487080;28;20068;-64
2023/05/08 15:58:09;;;;;;;10.43;8.88;;;;;;;18.95;54.42;100332.50;10522638;28;20047;-64
2023/05/08 16:03:10;;;;;;;13.30;10.30;;;;;;;18.81;54.87;100330.22;10527110;28;20121;-63
2023/05/08 16:08:12;;;;;;;10.60;9.52;;;;;;;18.71;55.59;100332.00;10528306;28;20046;-64
2023/05/08 16:13:15;;;;;;;12.23;9.43;;;;;;;18.75;54.89;100328.09;10505631;28;20040;-64
2023/05/08 16:18:17;;;;;;;11.60;9.60;;;;;;;18.77;55.22;100330.66;10531826;28;20058;-64
2023/05/08 16:23:19;;;;;;;11.93;9.52;;;;;;;18.73;55.35;100329.25;10529147;28;20036;-63
2023/05/08 16:28:20;;;;;;;11.98;9.25;;;;;;;18.74;55.56;100325.59;10529317;28;20098;-64
2023/05/08 16:33:22;;;;;;;13.77;10.13;;;;;;;18.77;55.30;100318.22;10529361;28;20131;-64
2023/05/08 16:38:24;;;;;;;13.48;9.98;;;;;;;18.77;55.79;100310.25;10512233;28;20052;-64
2023/05/08 16:43:28;;;;;;;11.55;9.68;;;;;;;18.81;55.48;100303.72;10518373;28;20050;-64
2023/05/08 16:48:30;;;;;;;12.63;10.73;;;;;;;18.86;55.85;100308.63;10542066;28;20172;-64
2023/05/08 16:53:32;;;;;;;14.05;11.00;;;;;;;18.79;55.46;100297.72;10544214;28;20096;-63
2023/05/08 16:58:34;;;;;;;15.65;11.57;;;;;;;18.56;55.99;100299.72;10518638;28;20067;-64
2023/05/08 17:03:36;;;;;;;13.85;10.57;;;;;;;18.58;57.09;100291.66;10530186;28;20075;-64
2023/05/08 17:08:37;;;;;;;13.48;10.48;;;;;;;18.37;57.96;100290.88;10510204;28;20412;-64
2023/05/08 17:13:41;;;;;;;15.88;11.52;;;;;;;18.39;57.99;100287.13;10534661;28;20040;-64
2023/05/08 17:18:43;;;;;;;12.85;10.35;;;;;;;18.41;58.05;100295.78;10530489;28;20044;-64
2023/05/08 17:23:45;;;;;;;15.93;10.23;;;;;;;18.40;58.37;100295.91;10533018;28;20059;-64
2023/05/08 17:28:48;;;;;;;16.92;10.63;;;;;;;18.39;58.42;100294.22;10547868;28;20051;-65
2023/05/08 17:33:49;;;;;;;13.68;9.52;;;;;;;18.56;58.81;100298.91;10534926;28;20613;-64
2023/05/08 17:38:51;;;;;;;11.27;9.93;;;;;;;18.64;58.65;100301.72;10522051;28;20039;-64
2023/05/08 17:43:54;;;;;;;14.07;10.10;;;;;;;18.59;58.92;100306.56;10528554;28;20048;-64
2023/05/08 17:48:56;;;;;;;15.73;10.30;;;;;;;18.56;59.48;100302.38;10534099;28;20155;-64
2023/05/08 17:53:57;;;;;;;15.27;10.63;;;;;;;18.44;59.59;100310.56;10531937;28;20051;-64
2023/05/08 17:58:59;;;;;;;15.88;10.35;;;;;;;18.29;59.98;100298.63;10542950;28;20042;-63
2023/05/08 18:04:01;;;;;;;12.85;9.80;;;;;;;18.11;60.22;100308.97;10492494;28;20052;-64
2023/05/08 18:09:04;;;;;;;11.05;9.38;;;;;;;18.01;60.28;100317.81;10513907;28;20101;-64
2023/05/08 18:14:06;;;;;;;13.23;11.35;;;;;;;17.83;60.74;100307.78;10530925;28;20040;-64
2023/05/08 18:19:07;;;;;;;12.50;11.18;;;;;;;17.69;61.56;100315.19;10533538;28;20048;-64
2023/05/08 18:24:09;;;;;;;13.75;12.02;;;;;;;17.52;61.61;100321.91;10513051;28;20127;-63
2023/05/08 18:29:11;;;;;;;14.80;13.05;;;;;;;17.08;62.56;100324.63;10529109;28;20409;-63
2023/05/08 18:34:15;;;;;;;14.20;12.15;;;;;;;16.72;63.24;100322.28;10530598;28;20047;-63
2023/05/08 18:39:17;;;;;;;18.85;13.07;;;;;;;16.69;63.31;100322.53;10529493;28;20056;-63
2023/05/08 18:44:19;;;;;;;16.98;12.73;;;;;;;16.71;63.46;100323.25;10529694;28;20127;-63
2023/05/08 18:49:21;;;;;;;14.70;12.57;;;;;;;16.75;63.98;100322.03;10525880;28;20474;-63
2023/05/08 18:54:25;;;;;;;12.02;8.98;;;;;;;16.72;63.36;100317.00;10501495;28;20564;-62
2023/05/08 18:59:27;;;;;;;14.85;11.73;;;;;;;16.75;64.05;100319.41;10502069;28;20075;-63
2023/05/08 19:04:29;;;;;;;15.98;13.27;;;;;;;16.79;64.00;100328.78;10528985;28;20078;-63
2023/05/08 19:09:32;;;;;;;18.27;12.48;;;;;;;16.81;64.34;100317.09;10523993;28;20075;-63
2023/05/08 19:14:34;;;;;;;17.80;14.52;;;;;;;16.75;63.75;100317.59;10513964;28;20092;-63
2023/05/08 19:19:36;;;;;;;15.50;12.45;;;;;;;16.56;64.18;100308.59;10545746;28;20044;-63
2023/05/08 19:24:38;;;;;;;15.95;12.10;;;;;;;16.61;64.27;100303.81;10519867;28;20178;-64
2023/05/08 19:29:40;;;;;;;15.73;12.27;;;;;;;16.61;64.51;100315.19;10521916;28;20135;-63
2023/05/08 19:34:42;;;;;;;15.77;12.30;;;;;;;16.67;64.40;100313.88;10519142;28;20036;-62
2023/05/08 19:39:44;;;;;;;17.75;13.50;;;;;;;16.51;64.74;100310.78;10511964;28;20411;-61
2023/05/08 19:44:45;;;;;;;18.13;12.82;;;;;;;16.51;64.76;100316.06;10529895;28;20043;-61
2023/05/08 19:49:48;;;;;;;15.25;12.75;;;;;;;16.54;64.90;100311.38;10515308;28;20090;-61
2023/05/08 19:54:50;;;;;;;12.50;11.20;;;;;;;16.57;64.58;100297.91;10512996;28;20126;-61
2023/05/08 19:59:52;;;;;;;18.75;12.63;;;;;;;16.35;64.74;100300.53;10394252;28;20046;-62
2023/05/08 20:04:53;;;;;;;16.80;12.43;;;;;;;16.03;65.34;100318.84;10351424;28;20034;-61
2023/05/08 20:10:15;;;;;;;20.08;13.68;;;;;;;15.98;65.95;100314.84;10371167;28;20053;-61
2023/05/08 20:15:17;;;;;;;22.77;17.40;;;;;;;15.82;66.44;100319.59;10403146;28;20041;-61
2023/05/08 20:20:19;;;;;;;17.23;12.98;;;;;;;15.71;66.77;100309.88;10379648;28;20141;-61
2023/05/08 20:25:21;;;;;;;19.45;15.15;;;;;;;15.67;66.54;100311.06;10377155;28;20501;-62
2023/05/08 20:30:23;;;;;;;25.02;17.67;;;;;;;15.61;66.68;100303.63;10378213;28;20050;-61
2023/05/08 20:35:24;;;;;;;20.27;16.40;;;;;;;15.60;66.43;100294.00;10354569;28;20046;-60
2023/05/08 20:40:26;;;;;;;20.67;15.30;;;;;;;15.64;66.45;100292.81;10361573;28;20069;-61
2023/05/08 20:45:28;;;;;;;26.35;15.73;;;;;;;15.65;66.38;100291.03;10335766;28;20965;-62
2023/05/08 20:50:30;;;;;;;21.95;17.45;;;;;;;15.51;66.58;100299.94;10353288;28;20235;-62
2023/05/08 20:55:32;;;;;;;18.70;14.60;;;;;;;15.61;66.64;100306.25;10365117;28;20137;-61
2023/05/08 21:00:34;;;;;;;17.60;13.43;;;;;;;15.68;66.33;100302.19;10367837;28;20052;-61
2023/05/08 21:05:36;;;;;;;21.00;16.23;;;;;;;15.72;66.27;100306.28;10369187;28;20224;-62
2023/05/08 21:10:38;;;;;;;18.65;14.30;;;;;;;15.72;66.25;100308.06;10364358;28;20053;-61
2023/05/08 21:15:40;;;;;;;22.73;15.95;;;;;;;15.57;66.31;100304.78;10359689;28;20041;-61
2023/05/08 21:20:48;;;;;;;19.45;14.45;;;;;;;15.40;66.77;100297.25;10366173;28;20078;-61
2023/05/08 21:25:51;;;;;;;22.92;14.57;;;;;;;15.45;66.74;100297.75;10393116;28;20053;-62
2023/05/08 21:30:53;;;;;;;20.05;14.63;;;;;;;15.54;66.45;100294.47;10393224;28;20045;-62
2023/05/08 21:35:55;;;;;;;17.60;12.48;;;;;;;15.58;66.28;100295.06;10370419;28;20042;-61
2023/05/08 21:41:05;;;;;;;25.50;15.15;;;;;;;15.55;65.93;100288.22;10363498;28;20040;-62
2023/05/08 21:46:07;;;;;;;15.52;13.13;;;;;;;15.34;66.44;100285.38;10359214;28;20037;-61
2023/05/08 21:51:10;;;;;;;18.65;14.05;;;;;;;15.36;66.25;100282.63;10362052;28;20096;-61
2023/05/08 21:56:11;;;;;;;16.15;12.00;;;;;;;15.25;66.23;100275.50;10361678;28;20479;-61
2023/05/08 22:01:13;;;;;;;16.58;12.70;;;;;;;15.20;66.02;100275.03;10358519;28;20392;-61
2023/05/08 22:06:15;;;;;;;13.23;11.75;;;;;;;15.07;66.43;100268.09;10361351;28;20447;-61
2023/05/08 22:11:17;;;;;;;26.63;17.85;;;;;;;14.92;66.26;100266.59;10360407;28;20041;-62
2023/05/08 22:16:19;;;;;;;16.45;11.73;;;;;;;14.70;66.72;100267.28;10355434;28;20665;-61
2023/05/08 22:21:21;;;;;;;16.85;13.77;;;;;;;14.68;66.88;100263.06;10365102;28;20293;-61
2023/05/08 22:26:22;;;;;;;22.85;15.88;;;;;;;14.64;66.73;100258.97;10374157;28;20137;-61
2023/05/08 22:31:24;;;;;;;22.80;15.30;;;;;;;14.54;67.12;100250.91;10359969;28;20096;-61
2023/05/08 22:36:26;;;;;;;17.67;13.68;;;;;;;14.50;66.93;100242.38;10350043;28;20100;-62
2023/05/08 22:41:29;;;;;;;16.88;13.43;;;;;;;14.43;67.16;100235.81;10349400;28;20139;-61
2023/05/08 22:46:32;;;;;;;24.08;15.23;;;;;;;14.46;66.88;100245.31;10352329;28;20129;-61
2023/05/08 22:51:34;;;;;;;24.75;16.70;;;;;;;14.45;67.00;100233.94;10352077;28;20188;-61